Garcia del Cid — EHUU — position and weather

sailwx.info

Track history (hours):
 
Tides and Currents Weather Stations Pressure Air Temp Water Temp Dewpoint Dewpoint Depression Visibility Wind Speed Wind Dir Waves Ship Positions

Oceanographic research ship Garcia del Cid (Spain)

Detailed information on ship capabilities available from University of Delaware's Ocean Information Center.

Last reported at 2020-Jul-03 09:01 UTC. Time now 2020-Jul-03 19:09 UTC.
Position N 37°39' W 000°40'.

Length 30 m; draft 4.8 m.

Type: Dredging. MMSI: 224799000.

Date/timePositionNaut miles runAvg speedWind from/ knotsBaromVisibWave heightAir tempDewpointWater temp
2020-Jul-03 09:01N 37°39' W 000°40'0 7.2
2020-Jul-03 09:00N 37°39' W 000°40'2 3.0
2020-Jul-03 08:30N 37°39' W 000°42'5 2.4
2020-Jul-03 06:30N 37°42' W 000°37'9 3.7
2020-Jul-03 03:59N 37°50' W 000°31'11 8.3
2020-Jul-03 02:40N 37°58' W 000°22'  
2020-Jun-30 17:59N 39°05' E 001°38'92 2.6
2020-Jun-29 06:45N 39°25' W 000°18'10 7.9
2020-Jun-29 05:30N 39°31' W 000°09'144 4.2
2020-Jun-27 19:30N 41°11' E 002°07'4 7.7
2020-Jun-27 19:00N 41°13' E 002°12'4 1.8
2020-Jun-27 16:30N 41°18' E 002°11'7 2.7
2020-Jun-27 14:00N 41°15' E 002°19'4 8.0
2020-Jun-27 13:30N 41°12' E 002°23'10 2.6
2020-Jun-27 09:28N 41°04' E 002°32'6 3.8
2020-Jun-27 07:57N 41°00' E 002°37'0 0.4
2020-Jun-27 07:30N 41°00' E 002°38'103 3.5
2020-Jun-26 02:12N 40°08' E 004°33'3 0.4
2020-Jun-25 19:50N 40°06' E 004°31'0 0.1
2020-Jun-25 19:00N 40°06' E 004°30'1 0.9
2020-Jun-25 17:51N 40°05' E 004°29'4 0.7
2020-Jun-25 12:42N 40°03' E 004°26'0 0.4
2020-Jun-25 11:55N 40°03' E 004°26'42 5.3
2020-Jun-25 03:59N 39°30' E 003°52'19 8.6
2020-Jun-25 01:44N 39°17' E 003°34'3 8.5
2020-Jun-25 01:20N 39°14' E 003°30'11 8.2
2020-Jun-24 23:59N 39°07' E 003°20'10 3.5
2020-Jun-24 21:00N 38°60' E 003°10'17 6.7
2020-Jun-24 18:30N 39°08' E 002°52'24 7.1
2020-Jun-24 15:11N 39°20' E 002°26'3 2.8
2020-Jun-24 14:00N 39°24' E 002°26'5 2.2
2020-Jun-24 11:49N 39°29' E 002°26'4 5.6
2020-Jun-24 11:06N 39°27' E 002°30'9 8.0
2020-Jun-24 10:00N 39°30' E 002°40'5 1.7
2020-Jun-24 07:00N 39°28' E 002°34'101 7.3
2020-Jun-23 17:05N 41°08' E 002°13'15 4.1
2020-Jun-23 13:30N 41°23' E 002°11'0 0.0
2020-Jun-23 11:00N 41°23' E 002°11'0 0.0
2020-Jun-23 10:30N 41°23' E 002°11'0 0.0
2020-Jun-23 10:00N 41°23' E 002°11'0 0.0
2020-Jun-23 09:27N 41°23' E 002°11'  
Track history (hours):
 
Tides and Currents Weather Stations Pressure Air Temp Water Temp Dewpoint Dewpoint Depression Visibility Wind Speed Wind Dir Waves Ship Positions

Oceanographic research ship Garcia del Cid (Spain)

Detailed information on ship capabilities available from University of Delaware's Ocean Information Center.

Last reported at 2020-Jul-03 09:01 UTC. Time now 2020-Jul-03 19:09 UTC.
Position N 37°39' W 000°40'.

Length 30 m; draft 4.8 m.

Type: Dredging. MMSI: 224799000.

Date/timePositionNaut miles runAvg speedWind from/ knotsBaromVisibWave heightAir tempDewpointWater temp
2020-Jul-03 09:01N 37°39' W 000°40'0 7.2
2020-Jul-03 09:00N 37°39' W 000°40'2 3.0
2020-Jul-03 08:30N 37°39' W 000°42'5 2.4
2020-Jul-03 06:30N 37°42' W 000°37'9 3.7
2020-Jul-03 03:59N 37°50' W 000°31'11 8.3
2020-Jul-03 02:40N 37°58' W 000°22'  
2020-Jun-30 17:59N 39°05' E 001°38'92 2.6
2020-Jun-29 06:45N 39°25' W 000°18'10 7.9
2020-Jun-29 05:30N 39°31' W 000°09'144 4.2
2020-Jun-27 19:30N 41°11' E 002°07'4 7.7
2020-Jun-27 19:00N 41°13' E 002°12'4 1.8
2020-Jun-27 16:30N 41°18' E 002°11'7 2.7
2020-Jun-27 14:00N 41°15' E 002°19'4 8.0
2020-Jun-27 13:30N 41°12' E 002°23'10 2.6
2020-Jun-27 09:28N 41°04' E 002°32'6 3.8
2020-Jun-27 07:57N 41°00' E 002°37'0 0.4
2020-Jun-27 07:30N 41°00' E 002°38'103 3.5
2020-Jun-26 02:12N 40°08' E 004°33'3 0.4
2020-Jun-25 19:50N 40°06' E 004°31'0 0.1
2020-Jun-25 19:00N 40°06' E 004°30'1 0.9
2020-Jun-25 17:51N 40°05' E 004°29'4 0.7
2020-Jun-25 12:42N 40°03' E 004°26'0 0.4
2020-Jun-25 11:55N 40°03' E 004°26'42 5.3
2020-Jun-25 03:59N 39°30' E 003°52'19 8.6
2020-Jun-25 01:44N 39°17' E 003°34'3 8.5
2020-Jun-25 01:20N 39°14' E 003°30'11 8.2
2020-Jun-24 23:59N 39°07' E 003°20'10 3.5
2020-Jun-24 21:00N 38°60' E 003°10'17 6.7
2020-Jun-24 18:30N 39°08' E 002°52'24 7.1
2020-Jun-24 15:11N 39°20' E 002°26'3 2.8
2020-Jun-24 14:00N 39°24' E 002°26'5 2.2
2020-Jun-24 11:49N 39°29' E 002°26'4 5.6
2020-Jun-24 11:06N 39°27' E 002°30'9 8.0
2020-Jun-24 10:00N 39°30' E 002°40'5 1.7
2020-Jun-24 07:00N 39°28' E 002°34'101 7.3
2020-Jun-23 17:05N 41°08' E 002°13'15 4.1
2020-Jun-23 13:30N 41°23' E 002°11'0 0.0
2020-Jun-23 11:00N 41°23' E 002°11'0 0.0
2020-Jun-23 10:30N 41°23' E 002°11'0 0.0
2020-Jun-23 10:00N 41°23' E 002°11'0 0.0
2020-Jun-23 09:27N 41°23' E 002°11'  

Dump ship's entire track history